[3 wednesdays a month | 20:00lcl-22:00lcl] Düsseldorf Trainee Day

Zu Eventkalender hinzugefügt: 30 Daten

Maurice Szmudzinski

1332208
RG Düsseldorf - Event
ACtC-3eVkxBWymRDaiIMHRxyK6Q2L1Alsw6W8PNQ1ly5sFg8oAXQX5hAepgI2D8EAQeUi6LdYvFFsx9mLoEi4ID6KY8HRlH4zE0zK9pQTtwxz9ZPGhO9JSGpEvWgZVOozj8GyCKdDmL7FTssFIOGz95JWCpE=w1280-h720-no



Hallo zusammen!
Ab sofort bietet sich euch eine weitere Möglichkeit, um unsere Landeshauptstadt Düsseldorf (EDDL) mit voller Besetzung und tollem Service zu erleben!
Vom 18. November an, öffnen wir Düsseldorf jeden Mittwoch, bis auf unseren monatlichen Köln Mittwoch, von 20lcl bis 22lcl für einen Trainee Day.
Wir nutzen diesen Tag um möglichst viele Trainees auf die Frequenzen zu bringen und somit unsere Ausbildung in allen Bereichen nach vorne zu bringen.
Egal ob GND, TWR, APP oder CTR ihr werdet, je nach Ausbildungssituation, möglichst von einem Trainee betreut welcher sich über euren Flug mehr als freut.
Gerade zu diesem Anlass sind Notfälle oder sonstige besondere Situationen mehr als gewünscht, um das Gelernte mal, real am Scope, in die Tat umsetzen zu können.

Nutzt diese Win-Win Situation, helft unseren Trainees und genießt Düsseldorf bei voller Besetzung!

Wir freuen uns auf euch!


---


Hey all!
Good news from Dusseldorf: We are more than pleased to announce another onlineday for Düsseldorf (EDDL).
Starting from November the 18th we will open up our major airport EDDL from 20lcl to 22lcl for our Düsseldorf Traineeday.
Every wednesday, except our Cologne Onlineday, our trainees will provide excellent ATC service for you. That day helps us to accelerate our ATC training and our trainees get the chance to apply their new knowledge online.

We will try to staff Dusseldorf from the bottom to the top with trainees to gain the most helpful experience for them.
So try it out and visit us to experience a full airspace with lots of fun!

See you there!

Airport Info:

Scenery:

 

Kai Schuele

1482477
RG Düsseldorf - Event
ACtC-3eVkxBWymRDaiIMHRxyK6Q2L1Alsw6W8PNQ1ly5sFg8oAXQX5hAepgI2D8EAQeUi6LdYvFFsx9mLoEi4ID6KY8HRlH4zE0zK9pQTtwxz9ZPGhO9JSGpEvWgZVOozj8GyCKdDmL7FTssFIOGz95JWCpE=w1280-h720-no


Heute geht es los!

Ab heute übernehmen unsere Trainees drei mal im Monat die Kontrolle Mittwochs über unseren Flughafen am Niederrhein um ihre skills zu verbessern uns sich auf ihre Prüfung vorzubereiten.
Heute direkt auch mit einer Besonderheit, denn unser @Matthew Speak möchte heute seine Praktische Prüfung auf dem Approach ablegen und zeigen das er den Luftraum um Düsseldorf bestens im Griff hat.
Also kommt vorbei ab 18:00z (20:00lcl) und helft unseren Trainees beim üben.

Unsere Shuttle Empfehlungen sind heute die Onlinetage in London-Gatwick, Prag, der Slowakei und der Milano FIR.

Unsere Trainees freuen sich auf euch egal ob VFR in der Kontrollzone oder IFR auf euren Flügen von oder nach Düsseldorf!


Airport Info:

Scenery:


TAF:
  • EDDL 180500Z 1806/1912 17012KT 9999 BKN035 BECMG 1822/1901 24013KT PROB30 TEMPO 1822/1902 28015G25KT 4000 -RADZ BKN012 PROB30 TEMPO 1902/1909 24015G25KT BECMG 1909/1912 26015G25KT
 

David Zeiger

1238939
ATD - Prüfer
RG Düsseldorf - Mentor
Getreu dem Motto Trainee-Day freuen sich auch heute wieder 3 Trainees auf GND, TWR und APP über euren Besuch in Düsseldorf.

Zu ihrer Unterstützung, Beratung und Ausbildung stehen dabei zwei Mentoren im Hintergrund zur Verfügung.

Wir freuen uns auf euch, egal ob ✈️, 🛩️, 🚁 oder auch 🚀 ;)
 

Kai Schuele

1482477
RG Düsseldorf - Event
ACtC-3eVkxBWymRDaiIMHRxyK6Q2L1Alsw6W8PNQ1ly5sFg8oAXQX5hAepgI2D8EAQeUi6LdYvFFsx9mLoEi4ID6KY8HRlH4zE0zK9pQTtwxz9ZPGhO9JSGpEvWgZVOozj8GyCKdDmL7FTssFIOGz95JWCpE=w1280-h720-no


Heute ist wieder Trainee Day an NRW´s größtem Airport

Ab 19:00z (20:00lcl) übernehmen heute wieder unsere Trainees das Kommando am Ausbildungsflughafen in Düsseldorf um ihrem Ziel ein Stück näher zu kommen. Kommt vorbei und genießt bei bestem VFR Wetter die Sicht auf unsere Landeshauptstadt oder nutzt Düsseldorf (EDDL) als Start, Ziel oder Zwischenstopp auf eurem IFR Flug!
Unsere Trainees und Mentoren freuen sich über euren Flug von oder nach Düsseldorf.
Unsere Geheimtipps sind heute die Onlinetage in der Ukraine, Tschechien, Newcastle, Slowenien, Rom und Österreich.

Also seit dabei ab 19:00z (20:00lcl) und bringt unsere Trainees heute richtig ins Schwitzen!

Airport Info:

Scenery:


TAF:
  • EDDL 251100Z 2512/2618 16011KT CAVOK BECMG 2611/2614 16006KT
 
Zuletzt bearbeitet:

Kai Schuele

1482477
RG Düsseldorf - Event
ACtC-3eVkxBWymRDaiIMHRxyK6Q2L1Alsw6W8PNQ1ly5sFg8oAXQX5hAepgI2D8EAQeUi6LdYvFFsx9mLoEi4ID6KY8HRlH4zE0zK9pQTtwxz9ZPGhO9JSGpEvWgZVOozj8GyCKdDmL7FTssFIOGz95JWCpE=w1280-h720-no


Heute ist wieder Trainee Day an NRW's Größtem Flughafen

und ihr seid alle herzlich eingeladen euren Flug heute von oder nach Düsseldorf (EDDL) zu planen.
Drei mal im Monat übernehmen unsere zukünftigen Lotsen Mittwochs den Flughafen um ihre Skills zu verbessern und um Fit für ihre Prüfung zu werden.
Also seit ab 19:00z (20:00lcl) dabei und helft unseren Trainees in dem ihr VFR mit eurem Kleinflugzeug oder dem Hubschrauber ein paar runden in oder um die Kontrollzone fliegt oder indem ihr Düsseldorf (EDDL) als Star oder Zielflughafen eures IFR Fluges wählt.

Als Highlight haben wir heute auch das CPT von David Falke der die letzten Monate hart geübt hat um heute seinen Prüfern zu zeigen das er seinen Approach Luftraum beherrscht!

Natürlich bietet sich der Mittwoch auch wieder super an um einen oder mehrere Onlinetage von Düsseldorf aus anzufliegen wie zum Beispiel:

Wir freuen uns auf euren Besuch heute abend in der Landeshauptstadt Düsseldorf und Wünschen David Falke Viel Erfolg!

Airport Info:

Scenery:


TAF:
  • EDDL 021100Z 0212/0318 17006KT 9999 BKN008 TEMPO 0214/0224 BKN015 BECMG 0300/0303 BKN020 TEMPO 0303/0309 BKN012 BECMG 0306/0308 13012KT TEMPO 0314/0318 15015G25KT RA
 
Zuletzt bearbeitet:

Kai Schuele

1482477
RG Düsseldorf - Event
ACtC-3eVkxBWymRDaiIMHRxyK6Q2L1Alsw6W8PNQ1ly5sFg8oAXQX5hAepgI2D8EAQeUi6LdYvFFsx9mLoEi4ID6KY8HRlH4zE0zK9pQTtwxz9ZPGhO9JSGpEvWgZVOozj8GyCKdDmL7FTssFIOGz95JWCpE=w1280-h720-no



Heute ist wieder Trainee Day am Flughafen der Landeshauptstadt Düsseldorf

und ihr seid alle herzlich eingeladen euren Flug heute von oder nach Düsseldorf (EDDL) zu planen.
Drei mal im Monat übernehmen unsere zukünftigen Lotsen Mittwochs den Flughafen um ihre Skills zu verbessern und um Fit für ihre Prüfung zu werden.
Also seit ab 19:00z (20:00lcl) dabei und helft unseren Trainees in dem ihr VFR mit eurem Kleinflugzeug oder dem Hubschrauber ein paar runden in oder um die Kontrollzone fliegt oder indem ihr Düsseldorf (EDDL) als Star oder Zielflughafen eures IFR Fluges wählt.

Als Highlight haben wir heute auch das CPT von Tobias Gövert der die letzten Monate hart geübt hat um heute seinen Prüfern zu zeigen das er seinen Approach Luftraum beherrscht!

Natürlich bietet sich der Mittwoch auch wieder super an um einen oder mehrere Onlinetage von Düsseldorf aus anzufliegen wie zum Beispiel:

Wir freuen uns auf euren Besuch heute abend in der Landeshauptstadt Düsseldorf und Wünschen David Falke Viel Erfolg!

Airport Info:

Scenery:


TAF:
  • EDDL 161100Z 1612/1718 16011KT CAVOK PROB30 TEMPO 1704/1706 RA
 

Kai Schuele

1482477
RG Düsseldorf - Event
ACtC-3eVkxBWymRDaiIMHRxyK6Q2L1Alsw6W8PNQ1ly5sFg8oAXQX5hAepgI2D8EAQeUi6LdYvFFsx9mLoEi4ID6KY8HRlH4zE0zK9pQTtwxz9ZPGhO9JSGpEvWgZVOozj8GyCKdDmL7FTssFIOGz95JWCpE=w1280-h720-no




Heute ist wieder Trainee Day an NRW´s größtem Airport

Ab 19:00z (20:00lcl) übernehmen heute wieder unsere Trainees das Kommando am Ausbildungsflughafen in Düsseldorf um ihrem Ziel ein Stück näher zu kommen. Kommt vorbei und genießt VFR die Sicht auf unsere Landeshauptstadt oder nutzt Düsseldorf (EDDL) als Start, Ziel oder Zwischenstopp auf eurem IFR Flug!
Unsere Trainees und Mentoren freuen sich über euren Flug von oder nach Düsseldorf.
Unsere Shuttle Geheimtipps von Düsseldorf sind:

Also seit dabei ab 19:00z (20:00lcl) und bringt unsere Trainees heute richtig ins Schwitzen!

Airport Info:

Scenery:


TAF:
  • EDDL 231150Z 2312/2418 16008KT 6000 RA BKN030 TEMPO 2312/2317 3000 BR BKN012 BECMG 2314/2317 22011KT NSW TEMPO 2406/2410 32015G25KT RA BKN010 BECMG 2406/2409 31010KT
 
Zuletzt bearbeitet:

Kai Schuele

1482477
RG Düsseldorf - Event
ACtC-3eVkxBWymRDaiIMHRxyK6Q2L1Alsw6W8PNQ1ly5sFg8oAXQX5hAepgI2D8EAQeUi6LdYvFFsx9mLoEi4ID6KY8HRlH4zE0zK9pQTtwxz9ZPGhO9JSGpEvWgZVOozj8GyCKdDmL7FTssFIOGz95JWCpE=w1280-h720-no


Heute ist wieder Trainee Day am Flughafen der Landeshauptstadt Düsseldorf

und ihr seid alle herzlich eingeladen euren Flug heute von oder nach Düsseldorf (EDDL) zu planen.
Drei mal im Monat übernehmen unsere zukünftigen Lotsen Mittwochs den Flughafen um ihre Skills zu verbessern und um Fit für ihre Prüfung zu werden.
Also seit ab 19:00z (20:00lcl) dabei und helft unseren Trainees in dem ihr VFR mit eurem Kleinflugzeug oder dem Hubschrauber ein paar runden in oder um die Kontrollzone fliegt oder indem ihr Düsseldorf (EDDL) als Star oder Zielflughafen eures IFR Fluges wählt.

Natürlich bietet sich der Mittwoch auch wieder super an um einen oder mehrere Onlinetage von Düsseldorf aus anzufliegen wie zum Beispiel:

Wir freuen uns auf euren Besuch heute Abend in der Landeshauptstadt Düsseldorf und Wünschen David Falke Viel Erfolg!

Airport Info:

Scenery:

TAF:
  • EDDL 301100Z 3012/3118 21009KT 9999 BKN025 TEMPO 3012/3018 SHRA BKN012TCU BECMG 3102/3104 15010KT PROB30 TEMPO 3103/3109 4500 -RASN BKN012 PROB30 TEMPO 3109/3118 4000 -SHRASN BKN009TCU BECMG 3116/3118 VRB03KT
 

Kai Schuele

1482477
RG Düsseldorf - Event
ACtC-3eVkxBWymRDaiIMHRxyK6Q2L1Alsw6W8PNQ1ly5sFg8oAXQX5hAepgI2D8EAQeUi6LdYvFFsx9mLoEi4ID6KY8HRlH4zE0zK9pQTtwxz9ZPGhO9JSGpEvWgZVOozj8GyCKdDmL7FTssFIOGz95JWCpE=w1280-h720-no




Heute ist wieder Trainee Day am Flughafen der Landeshauptstadt Düsseldorf

und ihr seid alle herzlich eingeladen euren Flug heute von oder nach Düsseldorf (EDDL) zu planen.
Drei mal im Monat übernehmen unsere zukünftigen Lotsen Mittwochs den Flughafen um ihre Skills zu verbessern und um Fit für ihre Prüfung zu werden.
Also seit ab 19:00z (20:00lcl) dabei und helft unseren Trainees in dem ihr VFR mit eurem Kleinflugzeug oder dem Hubschrauber ein paar runden in oder um die Kontrollzone fliegt oder indem ihr Düsseldorf (EDDL) als Star oder Zielflughafen eures IFR Fluges wählt.

Natürlich bietet sich der Mittwoch auch wieder super an um einen oder mehrere Onlinetage von Düsseldorf aus anzufliegen.

Wir freuen uns auf euren Besuch heute abend in der Landeshauptstadt Düsseldorf

Airport Info:

Scenery:


TAF:
  • EDDL 131100Z 1312/1418 25013KT 9999 BKN008 BECMG 1312/1315 SCT012 BKN025 BECMG 1321/1324 31006KT PROB30 TEMPO 1321/1324 4500 -RA BKN010 BECMG 1404/1407 02005KT BECMG 1409/1412 11007KT
 
Zuletzt bearbeitet:

Jan-Niklas Philipp

1437036
RG Düsseldorf - Leitung
RG Düsseldorf - Mentor
Leider hat es für David heute nicht gereicht. Wir sind uns jedoch sicher dass er die notwendigen Fähigkeiten mitbringt!
 

Kai Schuele

1482477
RG Düsseldorf - Event
ACtC-3eVkxBWymRDaiIMHRxyK6Q2L1Alsw6W8PNQ1ly5sFg8oAXQX5hAepgI2D8EAQeUi6LdYvFFsx9mLoEi4ID6KY8HRlH4zE0zK9pQTtwxz9ZPGhO9JSGpEvWgZVOozj8GyCKdDmL7FTssFIOGz95JWCpE=w1280-h720-no





Heute ist wieder Trainee Day am Flughafen der Landeshauptstadt Düsseldorf, und es wird Windig!

Ihr seid alle herzlich eingeladen euren Flug an diesem Windigen Mittwoch von oder nach Düsseldorf (EDDL) zu planen.
Drei mal im Monat übernehmen unsere zukünftigen Lotsen Mittwochs den Flughafen um ihre Skills zu verbessern und um Fit für ihre Prüfung zu werden.
Also seit ab 19:00z (20:00lcl) dabei und helft unseren Trainees in dem ihr VFR mit eurem Kleinflugzeug oder dem Hubschrauber ein paar runden in oder um die Kontrollzone fliegt oder indem ihr Düsseldorf (EDDL) als Star oder Zielflughafen eures IFR Fluges wählt.

Natürlich bietet sich der Mittwoch auch wieder super an um einen oder mehrere Onlinetage von Düsseldorf aus anzufliegen.

Wir freuen uns auf euren Besuch heute abend in der Landeshauptstadt Düsseldorf

Airport Info:

Scenery:


TAF:
  • EDDL 201700Z 2018/2124 17015G25KT CAVOK TEMPO 2018/2023 17020G30KT BECMG 2023/2102 19020G35KT TEMPO 2102/2107 20025G45KT TEMPO 2104/2108 RA BECMG 2115/2118 18015G25KT TEMPO 2119/2124 RA
 

Kai Schuele

1482477
RG Düsseldorf - Event
ACtC-3eVkxBWymRDaiIMHRxyK6Q2L1Alsw6W8PNQ1ly5sFg8oAXQX5hAepgI2D8EAQeUi6LdYvFFsx9mLoEi4ID6KY8HRlH4zE0zK9pQTtwxz9ZPGhO9JSGpEvWgZVOozj8GyCKdDmL7FTssFIOGz95JWCpE=w1280-h720-no






Heute ist wieder Trainee Day am Ausbildungsflughafen in Düsseldorf

Ihr seid alle herzlich eingeladen euren Flug Heute von oder nach Düsseldorf (EDDL) zu planen.
Drei mal im Monat übernehmen unsere zukünftigen Lotsen Mittwochs den Flughafen, um ihre Skills zu verbessern und um Fit für ihre Prüfung zu werden.
Also seit ab 19:00z (20:00lcl) dabei und helft unseren Trainees in dem ihr VFR mit eurem Kleinflugzeug oder dem Hubschrauber ein paar runden in oder um die Kontrollzone fliegt oder indem ihr Düsseldorf (EDDL) als Star oder Zielflughafen eures IFR Fluges wählt.

Besonders zu erwähnen sind heute unsere Zwei Trainees auf unserem Approach die kurz vor ihrer Prüfung nochmal zeigen wollen das sie Fit sind auch die Prüfer zu Überzeugen.

Natürlich bietet sich der Mittwoch auch wieder super an um einen oder mehrere Onlinetage von Düsseldorf aus anzufliegen wie z.b:


Wir freuen uns auf euren Besuch heute Abend in der Landeshauptstadt Düsseldorf

Airport Info:

Scenery:


TAF:
  • EDDL 271100Z 2712/2818 18010KT 4000 BR OVC007 BECMG 2712/2715 24007KT TEMPO 2712/2805 2500 -DZRA OVC004 PROB30 TEMPO 2712/2805 1400 -DZ BECMG 2801/2804 18005KT TEMPO 2805/2812 2000 RA OVC004 BECMG 2807/2810 13010KT TEMPO 2812/2818 2000 RADZ BR OVC004 BECMG 2812/2815 VRB03KT
 

Kai Schuele

1482477
RG Düsseldorf - Event
ACtC-3eVkxBWymRDaiIMHRxyK6Q2L1Alsw6W8PNQ1ly5sFg8oAXQX5hAepgI2D8EAQeUi6LdYvFFsx9mLoEi4ID6KY8HRlH4zE0zK9pQTtwxz9ZPGhO9JSGpEvWgZVOozj8GyCKdDmL7FTssFIOGz95JWCpE=w1280-h720-no







Heute ist wieder Trainee Day am Ausbildungsflughafen in Düsseldorf

Ihr seid alle herzlich eingeladen euren Flug Heute von oder nach Düsseldorf (EDDL) zu planen.
Drei mal im Monat übernehmen unsere zukünftigen Lotsen Mittwochs den Flughafen, um ihre Skills zu verbessern und um Fit für ihre Prüfung zu werden.
Also seit ab 19:00z (20:00lcl) dabei und helft unseren Trainees in dem ihr VFR mit eurem Kleinflugzeug oder dem Hubschrauber ein paar runden in oder um die Kontrollzone fliegt oder indem ihr Düsseldorf (EDDL) als Star oder Zielflughafen eures IFR Fluges wählt.

Besonders zu erwähnen ist heute das schon ein Großteil unserer Trainees etwas früher da ist und ihr schon ab 18:00z (19:00lcl) mit ATC Service n Düsseldorf Rechnen könnt.

Natürlich bietet sich der Mittwoch auch wieder super an um einen oder mehrere Onlinetage von Düsseldorf aus anzufliegen wie z.b:


Wir freuen uns auf euren Besuch heute Abend in der Landeshauptstadt Düsseldorf

Airport Info:

Scenery:


TAF:
  • TAF: EDDL 101216Z 1012/1118 03010KT 9999 BKN020 TEMPO 1012/1017 BKN013 BECMG 1018/1020 02005KT
 

Kai Schuele

1482477
RG Düsseldorf - Event
ACtC-3eVkxBWymRDaiIMHRxyK6Q2L1Alsw6W8PNQ1ly5sFg8oAXQX5hAepgI2D8EAQeUi6LdYvFFsx9mLoEi4ID6KY8HRlH4zE0zK9pQTtwxz9ZPGhO9JSGpEvWgZVOozj8GyCKdDmL7FTssFIOGz95JWCpE=w1280-h720-no


Heute ist wieder Trainee Day am Flughafen der Landeshauptstadt Düsseldorf

und ihr seid alle herzlich eingeladen euren Flug heute von oder nach Düsseldorf (EDDL) zu planen.
Drei mal im Monat übernehmen unsere zukünftigen Lotsen Mittwochs den Flughafen um ihre Skills zu verbessern und um Fit für ihre Prüfung zu werden.
Also seit ab 19:00z (20:00lcl) dabei und helft unseren Trainees in dem ihr VFR mit eurem Kleinflugzeug oder dem Hubschrauber ein paar runden in oder um die Kontrollzone fliegt oder indem ihr Düsseldorf (EDDL) als Star oder Zielflughafen eures IFR Fluges wählt.

Besonders zu erwähnen ist das unser Louis Heute seine Prüfung auf dem Tower ablegt, kommt vorbei und unterstützt ihn in der Platzrunde oder eurem IFR Flug.

Natürlich bietet sich der Mittwoch auch wieder super an um einen oder mehrere Onlinetage von Düsseldorf aus anzufliegen wie zb. dem München Mittwoch.

Wir freuen uns auf euren Besuch heute Abend in der Landeshauptstadt Düsseldorf

Airport Info:

Scenery:


TAF:
  • EDDL 171100Z 1712/1818 22013KT 9999 BKN030 BECMG 1718/1721 15011KT BECMG 1806/1809 16015G25KT TEMPO 1810/1816 16020G30KT PROB30 TEMPO 1816/1818 RA
 

Kai Schuele

1482477
RG Düsseldorf - Event
ACtC-3eVkxBWymRDaiIMHRxyK6Q2L1Alsw6W8PNQ1ly5sFg8oAXQX5hAepgI2D8EAQeUi6LdYvFFsx9mLoEi4ID6KY8HRlH4zE0zK9pQTtwxz9ZPGhO9JSGpEvWgZVOozj8GyCKdDmL7FTssFIOGz95JWCpE=w1280-h720-no



Gleich geht es los denn es ist wieder Trainee Day am Flughafen der Landeshauptstadt Düsseldorf

und ihr seid alle herzlich eingeladen euren Flug heute von oder nach Düsseldorf (EDDL) zu planen.
Drei mal im Monat übernehmen unsere zukünftigen Lotsen Mittwochs den Flughafen um ihre Skills zu verbessern und um Fit für ihre Prüfung zu werden.
Also seit ab 19:00z (20:00lcl) dabei und helft unseren Trainees in dem ihr VFR mit eurem Kleinflugzeug oder dem Hubschrauber ein paar runden in oder um die Kontrollzone fliegt oder indem ihr Düsseldorf (EDDL) als Star oder Zielflughafen eures IFR Fluges wählt.

Besonders zu erwähnen ist das unser Daniel Schnell Heute seine Prüfung auf dem APP ablegt, kommt vorbei und unterstützt ihn in der Platzrunde oder eurem IFR Flug.

Natürlich bietet sich der Mittwoch auch wieder super an um einen oder mehrere Onlinetage von Düsseldorf aus anzufliegen wie zb. dem München Mittwoch.

Wir freuen uns auf euren Besuch heute Abend in der Landeshauptstadt Düsseldorf

Airport Info:

Scenery:


TAF:
  • EDDL 241700Z 2418/2524 17010KT CAVOK BECMG 2509/2512 23007KT BECMG 2518/2521 VRB03KT PROB30 TEMPO 2521/2524 35005KT SHRA BKN040TCU
 
Zuletzt bearbeitet:

Kai Schuele

1482477
RG Düsseldorf - Event
ACtC-3eVkxBWymRDaiIMHRxyK6Q2L1Alsw6W8PNQ1ly5sFg8oAXQX5hAepgI2D8EAQeUi6LdYvFFsx9mLoEi4ID6KY8HRlH4zE0zK9pQTtwxz9ZPGhO9JSGpEvWgZVOozj8GyCKdDmL7FTssFIOGz95JWCpE=w1280-h720-no




Gleich geht es los denn es ist wieder Trainee Day am Flughafen der Landeshauptstadt Düsseldorf

und ihr seid alle herzlich eingeladen euren Flug heute von oder nach Düsseldorf (EDDL) zu planen.
Drei mal im Monat übernehmen unsere zukünftigen Lotsen Mittwochs den Flughafen um ihre Skills zu verbessern und um Fit für ihre Prüfung zu werden.
Also seit ab 19:00z (20:00lcl) dabei und helft unseren Trainees in dem ihr VFR mit eurem Kleinflugzeug oder dem Hubschrauber ein paar runden in oder um die Kontrollzone fliegt oder indem ihr Düsseldorf (EDDL) als Star oder Zielflughafen eures IFR Fluges wählt.

Besonders zu erwähnen ist das unser Matthew Heute seine Prüfung auf dem CTR ablegt, kommt vorbei und unterstützt ihn in der Platzrunde oder eurem IFR Flug.

Natürlich bietet sich der Mittwoch auch wieder super an um einen oder mehrere Onlinetage von Düsseldorf aus anzufliegen wie zb. dem München Mittwoch.

Wir freuen uns auf euren Besuch heute Abend in der Landeshauptstadt Düsseldorf

Airport Info:

Scenery:


TAF:
  • TAF: EDDL 101100Z 1012/1118 18010KT CAVOK BECMG 1019/1022 20015G25KT PROB30 TEMPO 1021/1105 RA BECMG 1103/1106 20020G30KT BECMG 1107/1110 24025G45KT PROB30 TEMPO 1110/1116 29030G50KT 4500 SHRA BKN025CB BECMG 1116/1118 22015G25KT
 
Oben